sensor_id;sensor_type;location;lat;lon;timestamp;pressure;altitude;pressure_sealevel;temperature;humidity
55066;BME280;40964;42.114;24.220;2022-12-10T00:00:38;97407.53;;;7.33;100.00
55066;BME280;40964;42.114;24.220;2022-12-10T00:03:04;97402.94;;;7.15;100.00
55066;BME280;40964;42.114;24.220;2022-12-10T00:05:29;97411.59;;;7.16;100.00
55066;BME280;40964;42.114;24.220;2022-12-10T00:07:55;97408.19;;;7.22;100.00
55066;BME280;40964;42.114;24.220;2022-12-10T00:10:20;97408.97;;;7.29;100.00
55066;BME280;40964;42.114;24.220;2022-12-10T00:12:46;97405.72;;;7.33;100.00
55066;BME280;40964;42.114;24.220;2022-12-10T00:15:11;97404.91;;;7.33;100.00
55066;BME280;40964;42.114;24.220;2022-12-10T00:17:37;97395.88;;;7.29;100.00
55066;BME280;40964;42.114;24.220;2022-12-10T00:20:05;97405.56;;;7.22;100.00
55066;BME280;40964;42.114;24.220;2022-12-10T00:22:31;97384.84;;;7.20;100.00
55066;BME280;40964;42.114;24.220;2022-12-10T00:24:56;97382.81;;;7.22;100.00
55066;BME280;40964;42.114;24.220;2022-12-10T00:27:22;97392.66;;;7.27;100.00
55066;BME280;40964;42.114;24.220;2022-12-10T00:29:47;97388.25;;;7.21;100.00
55066;BME280;40964;42.114;24.220;2022-12-10T00:32:13;97391.03;;;7.32;100.00
55066;BME280;40964;42.114;24.220;2022-12-10T00:34:38;97389.44;;;7.31;100.00
55066;BME280;40964;42.114;24.220;2022-12-10T00:37:03;97390.66;;;7.29;100.00
55066;BME280;40964;42.114;24.220;2022-12-10T00:39:29;97399.09;;;7.31;100.00
55066;BME280;40964;42.114;24.220;2022-12-10T00:41:54;97387.25;;;7.22;100.00
55066;BME280;40964;42.114;24.220;2022-12-10T00:44:20;97393.28;;;7.22;100.00
55066;BME280;40964;42.114;24.220;2022-12-10T00:46:45;97394.25;;;7.28;100.00
55066;BME280;40964;42.114;24.220;2022-12-10T00:49:11;97392.06;;;7.31;100.00
55066;BME280;40964;42.114;24.220;2022-12-10T00:51:36;97396.28;;;7.32;100.00
55066;BME280;40964;42.114;24.220;2022-12-10T00:54:02;97372.38;;;7.22;100.00
55066;BME280;40964;42.114;24.220;2022-12-10T00:56:30;97367.34;;;7.21;100.00
55066;BME280;40964;42.114;24.220;2022-12-10T00:58:56;97370.13;;;7.32;100.00
55066;BME280;40964;42.114;24.220;2022-12-10T01:01:22;97369.50;;;7.37;100.00
55066;BME280;40964;42.114;24.220;2022-12-10T01:03:51;97359.66;;;7.32;100.00
55066;BME280;40964;42.114;24.220;2022-12-10T01:08:51;97375.13;;;7.34;100.00
55066;BME280;40964;42.114;24.220;2022-12-10T01:11:19;97377.53;;;7.35;100.00
55066;BME280;40964;42.114;24.220;2022-12-10T01:13:45;97376.94;;;7.33;100.00
55066;BME280;40964;42.114;24.220;2022-12-10T01:16:13;97371.34;;;7.23;100.00
55066;BME280;40964;42.114;24.220;2022-12-10T01:18:40;97378.59;;;7.21;100.00
55066;BME280;40964;42.114;24.220;2022-12-10T01:21:11;97368.94;;;7.28;100.00
55066;BME280;40964;42.114;24.220;2022-12-10T01:23:40;97381.19;;;7.28;100.00
55066;BME280;40964;42.114;24.220;2022-12-10T01:26:12;97382.00;;;7.28;100.00
55066;BME280;40964;42.114;24.220;2022-12-10T01:28:39;97380.59;;;7.26;100.00
55066;BME280;40964;42.114;24.220;2022-12-10T01:31:08;97374.75;;;7.30;100.00
55066;BME280;40964;42.114;24.220;2022-12-10T01:33:35;97375.34;;;7.32;100.00
55066;BME280;40964;42.114;24.220;2022-12-10T01:36:15;97376.56;;;7.30;100.00
55066;BME280;40964;42.114;24.220;2022-12-10T01:38:41;97366.13;;;7.23;100.00
55066;BME280;40964;42.114;24.220;2022-12-10T01:41:08;97358.88;;;7.25;100.00
55066;BME280;40964;42.114;24.220;2022-12-10T01:44:02;97353.25;;;7.22;100.00
55066;BME280;40964;42.114;24.220;2022-12-10T01:46:30;97349.84;;;7.21;100.00
55066;BME280;40964;42.114;24.220;2022-12-10T01:48:58;97349.25;;;7.19;100.00
55066;BME280;40964;42.114;24.220;2022-12-10T01:51:26;97340.00;;;7.10;100.00
55066;BME280;40964;42.114;24.220;2022-12-10T01:53:52;97346.84;;;7.11;100.00
55066;BME280;40964;42.114;24.220;2022-12-10T01:56:19;97323.09;;;7.13;100.00
55066;BME280;40964;42.114;24.220;2022-12-10T01:58:45;97321.31;;;7.06;100.00
55066;BME280;40964;42.114;24.220;2022-12-10T02:01:32;97316.66;;;7.08;100.00
55066;BME280;40964;42.114;24.220;2022-12-10T02:06:59;97323.31;;;7.04;100.00
55066;BME280;40964;42.114;24.220;2022-12-10T02:09:43;97320.94;;;6.96;100.00
55066;BME280;40964;42.114;24.220;2022-12-10T02:12:35;97338.00;;;6.99;100.00
55066;BME280;40964;42.114;24.220;2022-12-10T02:17:52;97337.66;;;6.75;100.00
55066;BME280;40964;42.114;24.220;2022-12-10T02:20:29;97342.47;;;6.72;100.00
55066;BME280;40964;42.114;24.220;2022-12-10T02:23:35;97337.25;;;6.72;100.00
55066;BME280;40964;42.114;24.220;2022-12-10T02:26:08;97348.50;;;6.72;100.00
55066;BME280;40964;42.114;24.220;2022-12-10T02:28:51;97354.53;;;6.79;100.00
55066;BME280;40964;42.114;24.220;2022-12-10T02:31:26;97354.94;;;6.83;100.00
55066;BME280;40964;42.114;24.220;2022-12-10T02:33:57;97354.13;;;6.82;100.00
55066;BME280;40964;42.114;24.220;2022-12-10T02:36:26;97344.69;;;6.68;100.00
55066;BME280;40964;42.114;24.220;2022-12-10T02:38:52;97332.84;;;6.66;100.00
55066;BME280;40964;42.114;24.220;2022-12-10T02:41:27;97334.84;;;6.64;100.00
55066;BME280;40964;42.114;24.220;2022-12-10T02:43:54;97328.22;;;6.74;100.00
55066;BME280;40964;42.114;24.220;2022-12-10T02:46:23;97322.75;;;6.82;100.00
55066;BME280;40964;42.114;24.220;2022-12-10T02:48:50;97311.13;;;6.78;100.00
55066;BME280;40964;42.114;24.220;2022-12-10T02:51:16;97315.34;;;6.79;100.00
55066;BME280;40964;42.114;24.220;2022-12-10T02:53:43;97311.50;;;6.89;100.00
55066;BME280;40964;42.114;24.220;2022-12-10T02:56:23;97310.91;;;6.80;100.00
55066;BME280;40964;42.114;24.220;2022-12-10T03:04:31;97294.22;;;6.88;100.00
55066;BME280;40964;42.114;24.220;2022-12-10T03:07:03;97300.81;;;7.03;100.00
55066;BME280;40964;42.114;24.220;2022-12-10T03:09:40;97303.81;;;7.07;100.00
55066;BME280;40964;42.114;24.220;2022-12-10T03:12:21;97290.72;;;7.07;100.00
55066;BME280;40964;42.114;24.220;2022-12-10T03:14:47;97288.31;;;7.12;100.00
55066;BME280;40964;42.114;24.220;2022-12-10T03:17:13;97297.16;;;7.11;100.00
55066;BME280;40964;42.114;24.220;2022-12-10T03:19:42;97278.66;;;7.13;100.00
55066;BME280;40964;42.114;24.220;2022-12-10T03:22:12;97285.69;;;7.12;100.00
55066;BME280;40964;42.114;24.220;2022-12-10T03:24:39;97291.38;;;7.02;100.00
55066;BME280;40964;42.114;24.220;2022-12-10T03:27:07;97294.56;;;6.98;100.00
55066;BME280;40964;42.114;24.220;2022-12-10T03:29:40;97294.00;;;6.89;100.00
55066;BME280;40964;42.114;24.220;2022-12-10T03:32:08;97294.19;;;6.94;100.00
55066;BME280;40964;42.114;24.220;2022-12-10T03:34:34;97287.97;;;6.89;100.00
55066;BME280;40964;42.114;24.220;2022-12-10T03:37:01;97289.78;;;6.95;100.00
55066;BME280;40964;42.114;24.220;2022-12-10T03:39:28;97284.53;;;6.95;100.00
55066;BME280;40964;42.114;24.220;2022-12-10T03:41:53;97303.78;;;7.14;100.00
55066;BME280;40964;42.114;24.220;2022-12-10T03:44:30;97279.66;;;7.11;100.00
55066;BME280;40964;42.114;24.220;2022-12-10T03:46:56;97233.47;;;6.92;100.00
55066;BME280;40964;42.114;24.220;2022-12-10T03:49:21;97272.41;;;7.14;100.00
55066;BME280;40964;42.114;24.220;2022-12-10T03:51:47;97280.03;;;7.15;100.00
55066;BME280;40964;42.114;24.220;2022-12-10T03:54:12;97284.28;;;7.09;100.00
55066;BME280;40964;42.114;24.220;2022-12-10T03:56:38;97285.72;;;7.05;100.00
55066;BME280;40964;42.114;24.220;2022-12-10T03:59:03;97289.34;;;7.04;100.00
55066;BME280;40964;42.114;24.220;2022-12-10T04:01:28;97281.84;;;7.15;100.00
55066;BME280;40964;42.114;24.220;2022-12-10T04:03:54;97246.75;;;6.91;100.00
55066;BME280;40964;42.114;24.220;2022-12-10T04:06:19;97275.03;;;7.07;100.00
55066;BME280;40964;42.114;24.220;2022-12-10T04:08:46;97269.16;;;7.18;100.00
55066;BME280;40964;42.114;24.220;2022-12-10T04:11:13;97270.16;;;7.17;100.00
55066;BME280;40964;42.114;24.220;2022-12-10T04:13:39;97271.59;;;7.13;100.00
55066;BME280;40964;42.114;24.220;2022-12-10T04:16:24;97276.06;;;7.06;100.00
55066;BME280;40964;42.114;24.220;2022-12-10T04:21:27;97278.25;;;7.09;100.00
55066;BME280;40964;42.114;24.220;2022-12-10T04:24:15;97277.63;;;7.14;100.00
55066;BME280;40964;42.114;24.220;2022-12-10T04:27:03;97278.66;;;7.13;100.00
55066;BME280;40964;42.114;24.220;2022-12-10T04:29:30;97269.22;;;7.11;100.00
55066;BME280;40964;42.114;24.220;2022-12-10T04:31:56;97267.19;;;7.14;100.00
55066;BME280;40964;42.114;24.220;2022-12-10T04:34:23;97266.81;;;7.10;100.00
55066;BME280;40964;42.114;24.220;2022-12-10T04:36:49;97262.38;;;7.10;100.00
55066;BME280;40964;42.114;24.220;2022-12-10T04:39:16;97257.53;;;7.07;100.00
55066;BME280;40964;42.114;24.220;2022-12-10T04:41:43;97269.59;;;7.15;100.00
55066;BME280;40964;42.114;24.220;2022-12-10T04:44:09;97279.47;;;7.00;100.00
55066;BME280;40964;42.114;24.220;2022-12-10T04:46:35;97288.75;;;6.96;100.00
55066;BME280;40964;42.114;24.220;2022-12-10T04:49:02;97287.75;;;6.90;100.00
55066;BME280;40964;42.114;24.220;2022-12-10T04:51:27;97292.19;;;6.90;100.00
55066;BME280;40964;42.114;24.220;2022-12-10T04:53:53;97301.25;;;6.87;100.00
55066;BME280;40964;42.114;24.220;2022-12-10T04:56:18;97306.69;;;6.92;100.00
55066;BME280;40964;42.114;24.220;2022-12-10T04:58:44;97300.81;;;7.03;100.00
55066;BME280;40964;42.114;24.220;2022-12-10T05:01:10;97298.78;;;6.99;100.00
55066;BME280;40964;42.114;24.220;2022-12-10T05:03:36;97301.81;;;6.96;100.00
55066;BME280;40964;42.114;24.220;2022-12-10T05:06:10;97301.19;;;7.00;100.00
55066;BME280;40964;42.114;24.220;2022-12-10T05:08:38;97287.16;;;7.01;100.00
55066;BME280;40964;42.114;24.220;2022-12-10T05:11:06;97261.41;;;6.98;100.00
55066;BME280;40964;42.114;24.220;2022-12-10T05:13:32;97275.84;;;7.01;100.00
55066;BME280;40964;42.114;24.220;2022-12-10T05:15:57;97262.56;;;7.09;100.00
55066;BME280;40964;42.114;24.220;2022-12-10T05:18:23;97276.06;;;7.06;100.00
55066;BME280;40964;42.114;24.220;2022-12-10T05:20:49;97264.59;;;7.07;100.00
55066;BME280;40964;42.114;24.220;2022-12-10T05:23:15;97211.78;;;6.85;100.00
55066;BME280;40964;42.114;24.220;2022-12-10T05:26:03;97245.47;;;7.13;100.00
55066;BME280;40964;42.114;24.220;2022-12-10T05:28:31;97254.09;;;7.20;100.00
55066;BME280;40964;42.114;24.220;2022-12-10T05:30:58;97246.81;;;7.22;100.00
55066;BME280;40964;42.114;24.220;2022-12-10T05:33:24;97247.88;;;7.15;100.00
55066;BME280;40964;42.114;24.220;2022-12-10T05:35:57;97241.38;;;7.24;100.00
55066;BME280;40964;42.114;24.220;2022-12-10T05:38:24;97251.47;;;7.20;100.00
55066;BME280;40964;42.114;24.220;2022-12-10T05:40:50;97229.41;;;7.03;100.00
55066;BME280;40964;42.114;24.220;2022-12-10T05:43:16;97248.06;;;7.13;100.00
55066;BME280;40964;42.114;24.220;2022-12-10T05:45:41;97220.78;;;6.96;100.00
55066;BME280;40964;42.114;24.220;2022-12-10T05:48:12;97246.69;;;7.10;100.00
55066;BME280;40964;42.114;24.220;2022-12-10T05:50:38;97237.03;;;7.11;100.00
55066;BME280;40964;42.114;24.220;2022-12-10T05:53:04;97240.41;;;7.18;100.00
55066;BME280;40964;42.114;24.220;2022-12-10T05:55:30;97252.50;;;7.19;100.00
55066;BME280;40964;42.114;24.220;2022-12-10T05:57:58;97252.22;;;7.27;100.00
55066;BME280;40964;42.114;24.220;2022-12-10T06:00:24;97245.59;;;7.25;100.00
55066;BME280;40964;42.114;24.220;2022-12-10T06:02:50;97243.19;;;7.30;100.00
55066;BME280;40964;42.114;24.220;2022-12-10T06:05:16;97243.75;;;7.32;100.00
55066;BME280;40964;42.114;24.220;2022-12-10T06:07:41;97245.38;;;7.33;100.00
55066;BME280;40964;42.114;24.220;2022-12-10T06:10:07;97250.78;;;7.38;100.00
55066;BME280;40964;42.114;24.220;2022-12-10T06:12:33;97256.41;;;7.35;100.00
55066;BME280;40964;42.114;24.220;2022-12-10T06:14:59;97270.69;;;7.39;100.00
55066;BME280;40964;42.114;24.220;2022-12-10T06:17:24;97258.22;;;7.34;100.00
55066;BME280;40964;42.114;24.220;2022-12-10T06:19:49;97247.72;;;7.48;100.00
55066;BME280;40964;42.114;24.220;2022-12-10T06:22:17;97231.59;;;7.51;100.00
55066;BME280;40964;42.114;24.220;2022-12-10T06:24:43;97236.78;;;7.57;100.00
55066;BME280;40964;42.114;24.220;2022-12-10T06:27:08;97235.38;;;7.55;100.00
55066;BME280;40964;42.114;24.220;2022-12-10T06:29:34;97244.38;;;7.65;100.00
55066;BME280;40964;42.114;24.220;2022-12-10T06:31:59;97237.59;;;7.58;100.00
55066;BME280;40964;42.114;24.220;2022-12-10T06:34:25;97250.25;;;7.61;100.00
55066;BME280;40964;42.114;24.220;2022-12-10T06:36:50;97249.19;;;7.68;100.00
55066;BME280;40964;42.114;24.220;2022-12-10T06:39:16;97253.03;;;7.66;100.00
55066;BME280;40964;42.114;24.220;2022-12-10T06:41:41;97243.16;;;7.68;100.00
55066;BME280;40964;42.114;24.220;2022-12-10T06:44:09;97252.34;;;7.77;100.00
55066;BME280;40964;42.114;24.220;2022-12-10T06:46:36;97252.09;;;7.54;100.00
55066;BME280;40964;42.114;24.220;2022-12-10T06:49:03;97256.91;;;7.57;100.00
55066;BME280;40964;42.114;24.220;2022-12-10T06:51:28;97262.59;;;7.47;100.00
55066;BME280;40964;42.114;24.220;2022-12-10T06:53:54;97262.75;;;7.59;100.00
55066;BME280;40964;42.114;24.220;2022-12-10T06:56:20;97256.53;;;7.53;100.00
55066;BME280;40964;42.114;24.220;2022-12-10T06:58:47;97271.34;;;7.66;100.00
55066;BME280;40964;42.114;24.220;2022-12-10T07:01:14;97264.53;;;7.65;100.00
55066;BME280;40964;42.114;24.220;2022-12-10T07:03:40;97255.13;;;7.51;100.00
55066;BME280;40964;42.114;24.220;2022-12-10T07:06:07;97269.13;;;7.63;100.00
55066;BME280;40964;42.114;24.220;2022-12-10T07:08:34;97266.91;;;7.73;100.00
55066;BME280;40964;42.114;24.220;2022-12-10T07:11:03;97264.19;;;7.86;100.00
55066;BME280;40964;42.114;24.220;2022-12-10T07:13:29;97276.22;;;7.94;100.00
55066;BME280;40964;42.114;24.220;2022-12-10T07:15:54;97269.31;;;8.00;100.00
55066;BME280;40964;42.114;24.220;2022-12-10T07:18:20;97269.13;;;8.01;100.00
55066;BME280;40964;42.114;24.220;2022-12-10T07:20:45;97268.31;;;8.01;100.00
55066;BME280;40964;42.114;24.220;2022-12-10T07:23:11;97253.59;;;8.00;100.00
55066;BME280;40964;42.114;24.220;2022-12-10T07:25:36;97247.63;;;7.92;100.00
55066;BME280;40964;42.114;24.220;2022-12-10T07:28:02;97237.63;;;7.83;100.00
55066;BME280;40964;42.114;24.220;2022-12-10T07:30:27;97231.31;;;7.90;100.00
55066;BME280;40964;42.114;24.220;2022-12-10T07:32:53;97229.13;;;7.87;100.00
55066;BME280;40964;42.114;24.220;2022-12-10T07:35:18;97228.22;;;7.75;100.00
55066;BME280;40964;42.114;24.220;2022-12-10T07:37:43;97215.75;;;7.71;100.00
55066;BME280;40964;42.114;24.220;2022-12-10T07:40:09;97227.34;;;7.81;100.00
55066;BME280;40964;42.114;24.220;2022-12-10T07:42:35;97245.22;;;7.91;100.00
55066;BME280;40964;42.114;24.220;2022-12-10T07:45:01;97246.41;;;7.95;100.00
55066;BME280;40964;42.114;24.220;2022-12-10T07:47:26;97244.53;;;8.02;100.00
55066;BME280;40964;42.114;24.220;2022-12-10T07:49:51;97235.88;;;8.02;100.00
55066;BME280;40964;42.114;24.220;2022-12-10T07:52:17;97246.41;;;8.20;100.00
55066;BME280;40964;42.114;24.220;2022-12-10T07:54:42;97246.13;;;8.28;100.00
55066;BME280;40964;42.114;24.220;2022-12-10T07:57:08;97250.69;;;8.39;100.00
55066;BME280;40964;42.114;24.220;2022-12-10T07:59:33;97248.66;;;8.41;100.00
55066;BME280;40964;42.114;24.220;2022-12-10T08:01:59;97249.84;;;8.45;100.00
55066;BME280;40964;42.114;24.220;2022-12-10T08:04:27;97252.75;;;8.56;100.00
55066;BME280;40964;42.114;24.220;2022-12-10T08:06:54;97244.09;;;8.55;100.00
55066;BME280;40964;42.114;24.220;2022-12-10T08:09:20;97229.75;;;8.58;100.00
55066;BME280;40964;42.114;24.220;2022-12-10T08:11:45;97240.97;;;8.65;100.00
55066;BME280;40964;42.114;24.220;2022-12-10T08:14:10;97234.66;;;8.72;100.00
55066;BME280;40964;42.114;24.220;2022-12-10T08:16:36;97235.28;;;8.86;100.00
55066;BME280;40964;42.114;24.220;2022-12-10T08:19:04;97224.97;;;8.91;100.00
55066;BME280;40964;42.114;24.220;2022-12-10T08:21:31;97208.13;;;8.99;100.00
55066;BME280;40964;42.114;24.220;2022-12-10T08:23:58;97192.28;;;9.05;100.00
55066;BME280;40964;42.114;24.220;2022-12-10T08:26:26;97203.44;;;9.19;100.00
55066;BME280;40964;42.114;24.220;2022-12-10T08:28:54;97203.44;;;9.19;100.00
55066;BME280;40964;42.114;24.220;2022-12-10T08:31:20;97211.69;;;9.04;100.00
55066;BME280;40964;42.114;24.220;2022-12-10T08:33:46;97208.94;;;8.99;100.00
55066;BME280;40964;42.114;24.220;2022-12-10T08:36:14;97221.31;;;8.74;100.00
55066;BME280;40964;42.114;24.220;2022-12-10T08:38:40;97215.06;;;8.75;100.00
55066;BME280;40964;42.114;24.220;2022-12-10T08:41:08;97219.13;;;8.89;100.00
55066;BME280;40964;42.114;24.220;2022-12-10T08:43:34;97228.22;;;8.87;100.00
55066;BME280;40964;42.114;24.220;2022-12-10T08:46:00;97219.56;;;8.86;100.00
55066;BME280;40964;42.114;24.220;2022-12-10T08:48:25;97223.50;;;8.95;100.00
55066;BME280;40964;42.114;24.220;2022-12-10T08:50:51;97222.97;;;9.05;100.00
55066;BME280;40964;42.114;24.220;2022-12-10T08:53:16;97219.50;;;8.93;100.00
55066;BME280;40964;42.114;24.220;2022-12-10T08:55:42;97241.03;;;9.13;100.00
55066;BME280;40964;42.114;24.220;2022-12-10T08:58:08;97216.31;;;9.21;100.00
55066;BME280;40964;42.114;24.220;2022-12-10T09:00:35;97213.56;;;9.16;100.00
55066;BME280;40964;42.114;24.220;2022-12-10T09:03:01;97214.16;;;9.18;100.00
55066;BME280;40964;42.114;24.220;2022-12-10T09:05:26;97212.19;;;9.13;100.00
55066;BME280;40964;42.114;24.220;2022-12-10T09:07:51;97193.44;;;9.28;100.00
55066;BME280;40964;42.114;24.220;2022-12-10T09:10:17;97187.16;;;9.29;100.00
55066;BME280;40964;42.114;24.220;2022-12-10T09:12:43;97169.19;;;9.44;100.00
55066;BME280;40964;42.114;24.220;2022-12-10T09:15:09;97176.16;;;9.50;100.00
55066;BME280;40964;42.114;24.220;2022-12-10T09:17:36;97162.69;;;9.58;100.00
55066;BME280;40964;42.114;24.220;2022-12-10T09:20:04;97166.41;;;9.81;100.00
55066;BME280;40964;42.114;24.220;2022-12-10T09:22:30;97158.06;;;9.84;100.00
55066;BME280;40964;42.114;24.220;2022-12-10T09:24:56;97172.00;;;9.96;100.00
55066;BME280;40964;42.114;24.220;2022-12-10T09:27:21;97163.91;;;10.09;100.00
55066;BME280;40964;42.114;24.220;2022-12-10T09:29:47;97150.31;;;10.12;100.00
55066;BME280;40964;42.114;24.220;2022-12-10T09:32:12;97129.53;;;9.99;100.00
55066;BME280;40964;42.114;24.220;2022-12-10T09:34:38;97133.38;;;9.96;100.00
55066;BME280;40964;42.114;24.220;2022-12-10T09:37:03;97129.75;;;10.09;100.00
55066;BME280;40964;42.114;24.220;2022-12-10T09:39:28;97125.88;;;10.23;100.00
55066;BME280;40964;42.114;24.220;2022-12-10T09:44:57;97114.19;;;10.55;100.00
55066;BME280;40964;42.114;24.220;2022-12-10T09:47:35;97100.53;;;10.69;100.00
55066;BME280;40964;42.114;24.220;2022-12-10T09:50:11;97108.25;;;10.88;100.00
55066;BME280;40964;42.114;24.220;2022-12-10T09:52:41;97085.97;;;10.78;100.00
55066;BME280;40964;42.114;24.220;2022-12-10T09:55:13;97092.97;;;11.01;98.97
55066;BME280;40964;42.114;24.220;2022-12-10T09:57:43;97103.53;;;11.18;100.00
55066;BME280;40964;42.114;24.220;2022-12-10T10:00:32;97091.88;;;11.31;97.83
55066;BME280;40964;42.114;24.220;2022-12-10T10:02:59;97081.75;;;11.40;95.92
55066;BME280;40964;42.114;24.220;2022-12-10T10:05:31;97074.59;;;11.52;95.40
55066;BME280;40964;42.114;24.220;2022-12-10T10:08:01;97075.06;;;11.49;94.04
55066;BME280;40964;42.114;24.220;2022-12-10T10:10:33;97066.34;;;11.31;95.23
55066;BME280;40964;42.114;24.220;2022-12-10T10:13:11;97051.53;;;11.42;95.06
55066;BME280;40964;42.114;24.220;2022-12-10T10:15:42;97048.91;;;11.42;93.29
55066;BME280;40964;42.114;24.220;2022-12-10T10:18:16;97032.88;;;11.44;93.35
55066;BME280;40964;42.114;24.220;2022-12-10T10:20:43;97045.84;;;11.67;92.93
55066;BME280;40964;42.114;24.220;2022-12-10T10:23:13;97036.34;;;11.66;92.81
55066;BME280;40964;42.114;24.220;2022-12-10T10:25:40;97034.13;;;11.58;92.75
55066;BME280;40964;42.114;24.220;2022-12-10T10:28:05;97030.44;;;11.59;93.56
55066;BME280;40964;42.114;24.220;2022-12-10T10:30:31;97018.28;;;11.75;93.75
55066;BME280;40964;42.114;24.220;2022-12-10T10:32:57;97005.47;;;11.78;92.05
55066;BME280;40964;42.114;24.220;2022-12-10T10:35:30;96995.50;;;11.80;91.42
55066;BME280;40964;42.114;24.220;2022-12-10T10:38:12;96992.25;;;11.95;90.99
55066;BME280;40964;42.114;24.220;2022-12-10T10:40:43;96972.56;;;12.03;91.39
55066;BME280;40964;42.114;24.220;2022-12-10T10:43:20;96982.38;;;12.29;91.81
55066;BME280;40964;42.114;24.220;2022-12-10T10:46:17;96976.19;;;12.40;90.61
55066;BME280;40964;42.114;24.220;2022-12-10T10:48:46;96989.63;;;12.17;90.26
55066;BME280;40964;42.114;24.220;2022-12-10T10:56:14;96975.88;;;11.54;94.46
55066;BME280;40964;42.114;24.220;2022-12-10T11:04:09;96998.25;;;11.18;97.52
55066;BME280;40964;42.114;24.220;2022-12-10T11:06:35;97001.59;;;11.14;97.16
55066;BME280;40964;42.114;24.220;2022-12-10T11:09:01;96995.94;;;11.22;97.77
55066;BME280;40964;42.114;24.220;2022-12-10T11:11:37;97002.97;;;11.16;96.78
55066;BME280;40964;42.114;24.220;2022-12-10T11:14:28;97014.34;;;11.22;97.50
55066;BME280;40964;42.114;24.220;2022-12-10T11:22:32;97009.19;;;11.27;94.46
55066;BME280;40964;42.114;24.220;2022-12-10T11:24:59;97015.63;;;11.36;94.67
55066;BME280;40964;42.114;24.220;2022-12-10T11:28:03;96997.84;;;11.26;94.73
55066;BME280;40964;42.114;24.220;2022-12-10T11:30:33;96991.13;;;11.52;94.66
55066;BME280;40964;42.114;24.220;2022-12-10T11:33:18;96987.13;;;11.50;93.51
55066;BME280;40964;42.114;24.220;2022-12-10T11:39:27;96964.38;;;11.99;92.99
55066;BME280;40964;42.114;24.220;2022-12-10T11:45:23;96938.81;;;12.00;90.86
55066;BME280;40964;42.114;24.220;2022-12-10T11:47:54;96942.09;;;12.12;92.18
55066;BME280;40964;42.114;24.220;2022-12-10T11:50:28;96952.84;;;12.27;91.05
55066;BME280;40964;42.114;24.220;2022-12-10T12:14:36;96901.47;;;12.62;88.47
55066;BME280;40964;42.114;24.220;2022-12-10T12:17:19;96901.94;;;12.54;88.43
55066;BME280;40964;42.114;24.220;2022-12-10T12:19:52;96900.69;;;12.61;88.12
55066;BME280;40964;42.114;24.220;2022-12-10T12:22:27;96897.41;;;12.49;88.55
55066;BME280;40964;42.114;24.220;2022-12-10T12:25:05;96908.44;;;12.19;89.40
55066;BME280;40964;42.114;24.220;2022-12-10T12:27:43;96908.44;;;11.92;91.24
55066;BME280;40964;42.114;24.220;2022-12-10T12:38:06;96907.78;;;11.63;92.80
55066;BME280;40964;42.114;24.220;2022-12-10T12:40:56;96924.09;;;11.60;93.29
55066;BME280;40964;42.114;24.220;2022-12-10T12:43:31;96904.63;;;11.61;93.66
55066;BME280;40964;42.114;24.220;2022-12-10T12:45:59;96886.19;;;11.61;94.13
55066;BME280;40964;42.114;24.220;2022-12-10T12:48:44;96894.75;;;11.51;94.63
55066;BME280;40964;42.114;24.220;2022-12-10T12:51:12;96898.34;;;11.67;94.39
55066;BME280;40964;42.114;24.220;2022-12-10T12:53:41;96889.38;;;11.85;93.42
55066;BME280;40964;42.114;24.220;2022-12-10T13:01:43;96881.75;;;11.66;95.01
55066;BME280;40964;42.114;24.220;2022-12-10T13:04:13;96881.06;;;11.76;94.79
55066;BME280;40964;42.114;24.220;2022-12-10T13:06:40;96872.38;;;11.54;95.20
55066;BME280;40964;42.114;24.220;2022-12-10T13:11:42;96883.97;;;11.75;94.66
55066;BME280;40964;42.114;24.220;2022-12-10T13:22:11;96870.13;;;11.62;95.55
55066;BME280;40964;42.114;24.220;2022-12-10T13:34:44;96847.81;;;11.26;97.08
55066;BME280;40964;42.114;24.220;2022-12-10T13:55:38;96823.75;;;11.18;98.21
55066;BME280;40964;42.114;24.220;2022-12-10T14:04:01;96822.22;;;11.00;99.16
55066;BME280;40964;42.114;24.220;2022-12-10T14:06:38;96829.69;;;11.08;99.09
55066;BME280;40964;42.114;24.220;2022-12-10T14:09:14;96830.41;;;11.03;99.13
55066;BME280;40964;42.114;24.220;2022-12-10T14:12:02;96832.88;;;11.10;99.04
55066;BME280;40964;42.114;24.220;2022-12-10T14:14:34;96828.16;;;11.12;99.00
55066;BME280;40964;42.114;24.220;2022-12-10T14:17:05;96825.09;;;11.20;98.83
55066;BME280;40964;42.114;24.220;2022-12-10T14:19:33;96825.91;;;11.21;99.12
55066;BME280;40964;42.114;24.220;2022-12-10T14:22:06;96824.06;;;11.21;98.38
55066;BME280;40964;42.114;24.220;2022-12-10T14:24:37;96819.00;;;11.15;99.05
55066;BME280;40964;42.114;24.220;2022-12-10T14:27:15;96820.06;;;10.97;100.00
55066;BME280;40964;42.114;24.220;2022-12-10T14:29:48;96810.00;;;10.94;100.00
55066;BME280;40964;42.114;24.220;2022-12-10T14:32:17;96813.19;;;10.96;99.91
55066;BME280;40964;42.114;24.220;2022-12-10T14:34:49;96805.81;;;10.93;99.97
55066;BME280;40964;42.114;24.220;2022-12-10T14:37:20;96798.25;;;10.79;100.00
55066;BME280;40964;42.114;24.220;2022-12-10T14:39:49;96792.44;;;10.77;100.00
55066;BME280;40964;42.114;24.220;2022-12-10T14:42:16;96793.00;;;10.79;100.00
55066;BME280;40964;42.114;24.220;2022-12-10T14:44:42;96786.78;;;10.69;100.00
55066;BME280;40964;42.114;24.220;2022-12-10T14:47:14;96783.44;;;10.73;100.00
55066;BME280;40964;42.114;24.220;2022-12-10T14:49:43;96786.00;;;10.68;100.00
55066;BME280;40964;42.114;24.220;2022-12-10T14:52:17;96785.38;;;10.61;100.00
55066;BME280;40964;42.114;24.220;2022-12-10T14:54:43;96792.22;;;10.62;100.00
55066;BME280;40964;42.114;24.220;2022-12-10T14:57:23;96775.97;;;10.65;100.00
55066;BME280;40964;42.114;24.220;2022-12-10T15:00:14;96768.06;;;10.65;100.00
55066;BME280;40964;42.114;24.220;2022-12-10T15:02:45;96766.09;;;10.56;100.00